Time;durP1;ratioP1;P1;durP2;ratioP2;P2;SDS_P1;SDS_P2;PMS_P1;PMS_P2;Temp;Humidity;BMP_temperature;BMP_pressure;BME280_temperature;BME280_humidity;BME280_pressure;Samples;Min_cycle;Max_cycle;Signal;HPM_P1;HPM_P2
2021/04/11 00:00:42;;;;;;;9.03;5.27;;;5.20;92.90;;;;;;5092682;28;20066;-78
2021/04/11 00:03:11;;;;;;;9.23;5.47;;;5.10;92.80;;;;;;5074596;28;20089;-78
2021/04/11 00:05:39;;;;;;;9.03;5.57;;;5.20;92.90;;;;;;5077515;28;20016;-77
2021/04/11 00:08:07;;;;;;;9.77;5.87;;;5.10;92.90;;;;;;5096545;28;20540;-78
2021/04/11 00:10:37;;;;;;;9.00;5.33;;;5.10;92.80;;;;;;5096567;28;20016;-79
2021/04/11 00:13:06;;;;;;;7.87;4.83;;;5.10;92.90;;;;;;5096642;28;20085;-79
2021/04/11 00:15:32;;;;;;;8.23;4.87;;;5.10;92.90;;;;;;5096665;28;20028;-79
2021/04/11 00:17:58;;;;;;;9.10;4.87;;;5.10;92.90;;;;;;5061703;28;20020;-79
2021/04/11 00:20:24;;;;;;;10.03;6.03;;;5.00;92.80;;;;;;5096404;28;20121;-79
2021/04/11 00:22:51;;;;;;;9.20;5.33;;;5.00;92.80;;;;;;5096174;28;20111;-79
2021/04/11 00:25:21;;;;;;;8.17;5.20;;;5.10;92.80;;;;;;5096257;28;20016;-79
2021/04/11 00:27:47;;;;;;;8.87;4.70;;;5.00;92.70;;;;;;5096185;28;20031;-78
2021/04/11 00:30:13;;;;;;;9.20;4.57;;;5.10;92.80;;;;;;5096170;28;20024;-79
2021/04/11 00:32:39;;;;;;;7.83;5.23;;;5.00;92.70;;;;;;5096199;28;20027;-78
2021/04/11 00:35:06;;;;;;;7.37;4.40;;;5.00;92.70;;;;;;5078210;28;20024;-77
2021/04/11 00:37:32;;;;;;;6.23;3.97;;;5.00;92.70;;;;;;5078138;28;20024;-78
2021/04/11 00:39:58;;;;;;;7.37;4.33;;;4.90;92.70;;;;;;5095666;28;20050;-78
2021/04/11 00:42:35;;;;;;;8.23;5.07;;;4.90;92.70;;;;;;5095951;28;20067;-79
2021/04/11 00:45:29;;;;;;;6.30;4.30;;;4.90;92.60;;;;;;5096063;28;20024;-79
2021/04/11 00:47:56;;;;;;;8.27;4.97;;;4.90;92.60;;;;;;5096010;28;20016;-79
2021/04/11 00:50:22;;;;;;;7.63;4.87;;;5.00;92.70;;;;;;5095926;28;20482;-76
2021/04/11 00:52:48;;;;;;;9.37;5.30;;;5.00;92.60;;;;;;5095743;28;20032;-79
2021/04/11 00:55:16;;;;;;;7.73;4.67;;;4.90;92.50;;;;;;5095864;28;20077;-79
2021/04/11 00:57:43;;;;;;;7.53;5.13;;;4.90;92.60;;;;;;5095653;28;20456;-79
2021/04/11 01:00:11;;;;;;;10.87;5.97;;;4.90;92.50;;;;;;5077442;28;20075;-78
2021/04/11 01:02:38;;;;;;;8.77;5.27;;;4.80;92.40;;;;;;5095546;28;20045;-76
2021/04/11 01:05:11;;;;;;;8.60;5.87;;;4.80;92.40;;;;;;5095560;28;20024;-79
2021/04/11 01:07:39;;;;;;;8.30;5.57;;;4.80;92.50;;;;;;5095470;28;20020;-79
2021/04/11 01:10:08;;;;;;;9.83;5.30;;;4.80;92.50;;;;;;5095414;28;20393;-78
2021/04/11 01:12:34;;;;;;;8.77;5.33;;;4.80;92.50;;;;;;5077309;28;20032;-79
2021/04/11 01:15:00;;;;;;;8.00;4.70;;;4.70;92.40;;;;;;5077095;28;20024;-79
2021/04/11 01:17:25;;;;;;;9.87;5.43;;;4.70;92.50;;;;;;5095301;28;20032;-79
2021/04/11 01:19:53;;;;;;;9.77;6.00;;;4.70;92.50;;;;;;5060521;28;20031;-79
2021/04/11 01:22:36;;;;;;;10.10;6.33;;;4.70;92.60;;;;;;5095426;28;20471;-79
2021/04/11 01:25:13;;;;;;;9.68;5.70;;;4.70;92.60;;;;;;5095008;28;20024;-77
2021/04/11 01:27:39;;;;;;;10.63;6.57;;;4.70;92.50;;;;;;5076891;28;20360;-77
2021/04/11 01:30:27;;;;;;;10.00;6.20;;;4.70;92.50;;;;;;5095041;28;20039;-77
2021/04/11 01:32:54;;;;;;;8.67;5.47;;;4.70;92.60;;;;;;5094988;28;20028;-77
2021/04/11 01:35:24;;;;;;;10.37;5.80;;;4.70;92.60;;;;;;5095033;28;20107;-79
2021/04/11 01:37:53;;;;;;;9.67;5.87;;;4.60;92.50;;;;;;5094943;28;20032;-79
2021/04/11 01:40:26;;;;;;;9.23;5.43;;;4.70;92.50;;;;;;5076532;28;20052;-78
2021/04/11 01:42:52;;;;;;;10.50;6.23;;;4.70;92.50;;;;;;5094685;28;20472;-78
2021/04/11 01:45:18;;;;;;;7.60;4.97;;;4.70;92.50;;;;;;5094746;28;20043;-78
2021/04/11 01:47:44;;;;;;;7.77;5.17;;;4.60;92.40;;;;;;5076655;28;20476;-78
2021/04/11 01:50:11;;;;;;;7.47;4.97;;;4.70;92.50;;;;;;5094672;28;20039;-79
2021/04/11 01:52:39;;;;;;;9.03;5.77;;;4.70;92.50;;;;;;5076474;28;20085;-78
2021/04/11 01:55:08;;;;;;;9.93;5.63;;;4.70;92.50;;;;;;5094528;28;20043;-77
2021/04/11 01:57:35;;;;;;;9.30;5.23;;;4.70;92.40;;;;;;5094484;28;20480;-79
2021/04/11 02:00:07;;;;;;;8.03;5.40;;;4.60;92.40;;;;;;5094549;28;20506;-79
2021/04/11 02:02:32;;;;;;;8.80;5.27;;;4.60;92.50;;;;;;5094464;28;20035;-79
2021/04/11 02:04:59;;;;;;;7.90;4.83;;;4.60;92.50;;;;;;5094240;28;20032;-72
2021/04/11 02:07:25;;;;;;;7.83;5.00;;;4.60;92.50;;;;;;5059661;28;20463;-73
2021/04/11 02:09:51;;;;;;;8.57;4.70;;;4.60;92.50;;;;;;5059601;28;20032;-73
2021/04/11 02:12:17;;;;;;;8.20;4.87;;;4.60;92.40;;;;;;5076231;28;20032;-73
2021/04/11 02:14:44;;;;;;;6.70;4.07;;;4.60;92.40;;;;;;5076105;28;20035;-73
2021/04/11 02:17:16;;;;;;;7.13;4.13;;;4.60;92.40;;;;;;5076118;28;20028;-72
2021/04/11 02:19:41;;;;;;;6.73;3.97;;;4.70;92.40;;;;;;5075961;28;20024;-73
2021/04/11 02:22:23;;;;;;;8.30;4.70;;;4.60;92.40;;;;;;5093863;28;20494;-73
2021/04/11 02:24:50;;;;;;;8.27;4.57;;;4.70;92.50;;;;;;5075907;28;20016;-76
2021/04/11 02:27:20;;;;;;;9.50;5.63;;;4.70;92.50;;;;;;5075313;28;20020;-79
2021/04/11 02:29:46;;;;;;;10.13;6.60;;;4.60;92.50;;;;;;5093919;28;20028;-77
2021/04/11 02:32:13;;;;;;;7.93;4.83;;;4.70;92.60;;;;;;5093791;28;20100;-78
2021/04/11 02:34:39;;;;;;;8.87;5.17;;;4.60;92.60;;;;;;5093806;28;20403;-78
2021/04/11 02:37:27;;;;;;;10.23;5.70;;;4.60;92.80;;;;;;5075593;28;20024;-76
2021/04/11 02:39:57;;;;;;;9.93;5.03;;;4.60;92.70;;;;;;5093466;28;20120;-77
2021/04/11 02:42:27;;;;;;;6.97;4.40;;;4.60;92.90;;;;;;5075431;28;20024;-79
2021/04/11 02:44:55;;;;;;;8.50;4.17;;;4.60;92.90;;;;;;5075481;28;20071;-77
2021/04/11 02:47:22;;;;;;;6.67;4.07;;;4.60;92.80;;;;;;5075535;28;20031;-77
2021/04/11 02:49:52;;;;;;;6.87;4.20;;;4.60;93.00;;;;;;5058875;28;20036;-76
2021/04/11 02:52:33;;;;;;;5.53;3.43;;;4.60;92.90;;;;;;5093441;28;20032;-77
2021/04/11 02:54:59;;;;;;;6.67;3.47;;;4.60;92.90;;;;;;5075164;28;20017;-78
2021/04/11 02:57:27;;;;;;;5.43;3.43;;;4.60;92.90;;;;;;5093335;28;20104;-77
2021/04/11 02:59:56;;;;;;;5.50;3.40;;;4.60;92.90;;;;;;5093396;28;20429;-77
2021/04/11 03:02:23;;;;;;;4.70;2.97;;;4.70;93.00;;;;;;5093073;28;20383;-77
2021/04/11 03:04:54;;;;;;;5.27;2.67;;;4.70;93.00;;;;;;5058517;28;20028;-77
2021/04/11 03:07:27;;;;;;;4.37;2.47;;;4.70;92.90;;;;;;5075021;28;20050;-77
2021/04/11 03:10:10;;;;;;;4.82;2.83;;;4.60;92.80;;;;;;5093118;28;20506;-77
2021/04/11 03:12:38;;;;;;;3.90;2.40;;;4.60;92.90;;;;;;5093202;28;20438;-77
2021/04/11 03:15:06;;;;;;;4.20;2.10;;;4.60;92.90;;;;;;5093307;28;20425;-78
2021/04/11 03:17:33;;;;;;;3.17;1.60;;;4.60;92.90;;;;;;5093142;28;20028;-79
2021/04/11 03:20:37;;;;;;;3.90;2.00;;;4.60;92.80;;;;;;5093017;28;20034;-79
2021/04/11 03:23:04;;;;;;;3.43;1.50;;;4.60;92.80;;;;;;5074837;28;20447;-79
2021/04/11 03:25:32;;;;;;;3.47;1.30;;;4.60;92.90;;;;;;5058368;28;20016;-79
2021/04/11 03:28:07;;;;;;;2.37;1.30;;;4.70;92.90;;;;;;5092964;28;20024;-73
2021/04/11 03:30:39;;;;;;;3.67;1.30;;;4.60;92.90;;;;;;5093260;28;20101;-74
2021/04/11 03:33:11;;;;;;;2.53;1.43;;;4.60;92.90;;;;;;5093065;28;20016;-73
2021/04/11 03:35:41;;;;;;;2.57;1.23;;;4.70;92.90;;;;;;5093087;28;20025;-72
2021/04/11 03:38:09;;;;;;;2.37;1.20;;;4.70;92.90;;;;;;5092898;28;20467;-73
2021/04/11 03:40:37;;;;;;;2.23;1.23;;;4.70;92.80;;;;;;5077643;28;20466;-73
2021/04/11 03:43:12;;;;;;;2.23;1.47;;;4.70;92.80;;;;;;5078965;28;20107;-73
2021/04/11 03:45:40;;;;;;;2.90;1.30;;;4.70;92.80;;;;;;5078913;28;20428;-73
2021/04/11 03:48:15;;;;;;;2.60;1.40;;;4.70;92.80;;;;;;5078851;28;20482;-72
2021/04/11 03:50:50;;;;;;;2.50;1.37;;;4.70;92.80;;;;;;5097067;28;20418;-73
2021/04/11 03:53:30;;;;;;;2.53;1.17;;;4.70;92.80;;;;;;5096762;28;20099;-72
2021/04/11 03:56:03;;;;;;;2.10;1.20;;;4.70;92.90;;;;;;5078653;28;20031;-73
2021/04/11 03:58:33;;;;;;;3.67;1.33;;;4.70;92.80;;;;;;5096707;28;20020;-72
2021/04/11 04:01:03;;;;;;;3.03;1.10;;;4.70;92.70;;;;;;5070648;28;20024;-73
2021/04/11 04:03:31;;;;;;;1.93;0.93;;;4.70;92.70;;;;;;5074656;28;20025;-74
2021/04/11 04:06:05;;;;;;;2.17;1.23;;;4.80;92.70;;;;;;5075084;28;20387;-72
2021/04/11 04:08:30;;;;;;;1.95;1.20;;;4.70;92.70;;;;;;5076449;28;20082;-72
2021/04/11 04:11:23;;;;;;;2.53;1.07;;;4.70;92.70;;;;;;5076324;28;20468;-73
2021/04/11 04:13:48;;;;;;;1.93;1.00;;;4.70;92.70;;;;;;5076252;28;20029;-72
2021/04/11 04:16:28;;;;;;;3.90;1.30;;;4.70;92.80;;;;;;5075253;28;20559;-72
2021/04/11 04:19:20;;;;;;;2.60;1.27;;;4.70;92.80;;;;;;5076050;28;20021;-73
2021/04/11 04:22:06;;;;;;;2.30;1.13;;;4.70;92.80;;;;;;5058110;28;20050;-73
2021/04/11 04:25:01;;;;;;;1.90;0.93;;;4.70;92.80;;;;;;5075940;28;20074;-73
2021/04/11 04:27:27;;;;;;;;;;;4.70;92.80;;;;;;5063038;28;20105;-73
2021/04/11 04:30:21;;;;;;;1.63;0.80;;;4.70;92.80;;;;;;5075831;28;19904;-72
2021/04/11 04:33:41;;;;;;;1.85;1.05;;;4.70;92.70;;;;;;5057036;28;20541;-72
2021/04/11 04:36:44;;;;;;;2.37;1.13;;;4.70;92.80;;;;;;4976874;28;20457;-72
2021/04/11 04:39:39;;;;;;;2.23;1.10;;;4.80;92.80;;;;;;5057491;28;20039;-72
2021/04/11 04:42:27;;;;;;;2.07;1.10;;;4.80;92.80;;;;;;5057664;28;20086;-73
2021/04/11 04:44:53;;;;;;;2.20;1.00;;;4.80;92.80;;;;;;5075499;28;20039;-72
2021/04/11 04:47:44;;;;;;;2.67;0.93;;;4.80;92.70;;;;;;5074635;28;20387;-73
2021/04/11 04:50:28;;;;;;;3.57;1.10;;;4.80;93.00;;;;;;5046332;28;20472;-73
2021/04/11 04:53:27;;;;;;;2.63;1.10;;;4.80;92.80;;;;;;5075530;28;20032;-73
2021/04/11 04:55:57;;;;;;;2.40;1.03;;;4.80;92.90;;;;;;5075249;28;20028;-73
2021/04/11 04:58:37;;;;;;;2.43;1.27;;;4.80;92.80;;;;;;5061035;28;20024;-72
2021/04/11 05:01:18;;;;;;;2.93;1.13;;;4.80;92.90;;;;;;5076050;28;20040;-72
2021/04/11 05:03:50;;;;;;;1.93;1.20;;;4.80;92.90;;;;;;5073694;28;20035;-74
2021/04/11 05:06:25;;;;;;;2.93;1.43;;;4.80;92.90;;;;;;5073596;28;20503;-72
2021/04/11 05:09:01;;;;;;;3.53;1.40;;;4.90;93.00;;;;;;5075206;28;20032;-72
2021/04/11 05:12:07;;;;;;;3.77;1.73;;;4.90;92.90;;;;;;5075330;28;20031;-72
2021/04/11 05:14:43;;;;;;;2.70;1.30;;;4.90;93.00;;;;;;5047065;28;20041;-73
2021/04/11 05:17:24;;;;;;;2.80;1.30;;;4.90;93.00;;;;;;5056884;28;20025;-73
2021/04/11 05:19:57;;;;;;;3.10;1.60;;;4.90;92.90;;;;;;5075217;28;20016;-72
2021/04/11 05:22:22;;;;;;;3.00;1.30;;;4.90;92.90;;;;;;5074911;28;20024;-73
2021/04/11 05:24:56;;;;;;;4.77;1.57;;;4.90;92.90;;;;;;5056970;28;20498;-72
2021/04/11 05:27:46;;;;;;;3.28;1.52;;;4.90;92.90;;;;;;5075137;28;20320;-78
2021/04/11 05:30:22;;;;;;;3.27;1.93;;;4.90;92.90;;;;;;5019115;28;20510;-78
2021/04/11 05:32:49;;;;;;;2.83;1.30;;;4.90;93.00;;;;;;5056682;28;20056;-79
2021/04/11 05:35:14;;;;;;;3.63;1.57;;;4.90;92.90;;;;;;5056948;28;20048;-78
2021/04/11 05:38:11;;;;;;;4.33;1.43;;;4.90;92.90;;;;;;5056655;28;20404;-78
2021/04/11 05:40:48;;;;;;;5.77;1.90;;;4.90;92.90;;;;;;5074831;28;20438;-79
2021/04/11 05:43:21;;;;;;;2.73;1.50;;;4.90;92.90;;;;;;5074639;28;20017;-78
2021/04/11 05:45:52;;;;;;;4.00;1.70;;;5.00;92.90;;;;;;5056661;28;20023;-78
2021/04/11 05:48:42;;;;;;;4.17;1.70;;;5.00;93.00;;;;;;5074540;28;20066;-79
2021/04/11 05:51:18;;;;;;;7.43;2.10;;;5.00;92.90;;;;;;5074480;28;20127;-78
2021/04/11 05:53:56;;;;;;;3.17;1.50;;;5.00;92.90;;;;;;5056504;28;20021;-78
2021/04/11 05:56:42;;;;;;;4.87;1.70;;;5.00;92.80;;;;;;5074213;28;20028;-81
2021/04/11 05:59:13;;;;;;;3.90;1.60;;;5.00;92.80;;;;;;5056500;28;20073;-78
2021/04/11 06:01:50;;;;;;;2.47;1.40;;;5.00;92.80;;;;;;5073645;28;20476;-78
2021/04/11 06:04:43;;;;;;;4.17;1.37;;;5.00;92.80;;;;;;5074204;28;20036;-79
2021/04/11 06:07:44;;;;;;;3.03;1.30;;;5.00;92.70;;;;;;5074127;28;20403;-79
2021/04/11 06:10:20;;;;;;;2.50;1.23;;;4.90;92.60;;;;;;5056094;28;20091;-78
2021/04/11 06:12:55;;;;;;;2.13;1.17;;;5.00;92.50;;;;;;5073883;28;20025;-78
2021/04/11 06:15:37;;;;;;;3.63;1.30;;;5.00;92.50;;;;;;5073675;28;20491;-79
2021/04/11 06:18:06;;;;;;;3.13;1.30;;;5.00;92.50;;;;;;5073875;28;20046;-78
2021/04/11 06:20:33;;;;;;;4.77;1.30;;;5.00;92.50;;;;;;5056039;28;20562;-78
2021/04/11 06:23:37;;;;;;;2.50;1.20;;;5.00;92.50;;;;;;5056136;28;20037;-78
2021/04/11 06:26:11;;;;;;;2.30;1.00;;;5.10;92.50;;;;;;5029224;28;20040;-79
2021/04/11 06:28:48;;;;;;;;;;;5.10;92.30;;;;;;5074239;28;20016;-78
2021/04/11 06:31:21;;;;;;;3.60;1.20;;;5.10;92.20;;;;;;5073913;28;19950;-78
2021/04/11 06:33:50;;;;;;;1.97;0.97;;;5.20;92.20;;;;;;5073746;28;20028;-78
2021/04/11 06:36:18;;;;;;;3.27;1.03;;;5.20;92.20;;;;;;5055861;28;20406;-79
2021/04/11 06:38:58;;;;;;;3.87;1.00;;;5.20;92.10;;;;;;5055588;28;20379;-78
2021/04/11 06:41:58;;;;;;;2.37;0.87;;;5.20;92.40;;;;;;5073315;28;20421;-79
2021/04/11 06:44:23;;;;;;;3.17;0.93;;;5.30;92.10;;;;;;5073388;28;20078;-78
2021/04/11 06:47:13;;;;;;;3.47;0.83;;;5.30;91.80;;;;;;5073569;28;20028;-78
2021/04/11 06:50:00;;;;;;;3.40;0.90;;;5.40;91.80;;;;;;5055343;28;20111;-79
2021/04/11 06:52:53;;;;;;;2.53;0.90;;;5.40;91.80;;;;;;5055280;28;20472;-79
2021/04/11 06:55:33;;;;;;;1.60;0.70;;;5.40;91.70;;;;;;5055250;28;20032;-79
2021/04/11 06:58:36;;;;;;;2.20;1.07;;;5.50;91.60;;;;;;5073071;28;20028;-78
2021/04/11 07:01:54;;;;;;;4.70;0.87;;;5.50;91.50;;;;;;5073066;28;20031;-79
2021/04/11 07:04:53;;;;;;;1.30;0.60;;;5.50;91.30;;;;;;5029773;28;20052;-78
2021/04/11 07:07:37;;;;;;;1.93;0.70;;;5.60;91.30;;;;;;5055123;28;20052;-79
2021/04/11 07:10:24;;;;;;;1.73;0.57;;;5.70;91.10;;;;;;5073022;28;20032;-79
2021/04/11 07:13:27;;;;;;;3.00;0.97;;;5.70;90.90;;;;;;5054816;28;20275;-79
2021/04/11 07:16:14;;;;;;;4.07;0.80;;;5.70;90.60;;;;;;5073069;28;20110;-79
2021/04/11 07:18:42;;;;;;;4.13;1.23;;;5.70;90.80;;;;;;5054943;28;20116;-79
2021/04/11 07:21:42;;;;;;;2.00;0.60;;;5.70;90.70;;;;;;5072985;28;20047;-78
2021/04/11 07:24:26;;;;;;;3.73;0.70;;;5.80;90.80;;;;;;5054663;28;20113;-78
2021/04/11 07:26:52;;;;;;;4.85;1.00;;;5.90;90.90;;;;;;5072818;28;20028;-77
2021/04/11 07:29:37;;;;;;;1.57;0.63;;;5.90;90.80;;;;;;5072726;28;20024;-77
2021/04/11 07:32:22;;;;;;;1.87;0.70;;;6.00;90.80;;;;;;5054831;28;20109;-77
2021/04/11 07:35:06;;;;;;;5.23;1.13;;;6.00;90.50;;;;;;5072828;28;20021;-79
2021/04/11 07:37:47;;;;;;;4.60;1.00;;;6.00;90.40;;;;;;5072660;28;20025;-77
2021/04/11 07:40:39;;;;;;;4.07;1.40;;;5.90;90.30;;;;;;5072293;28;20055;-77
2021/04/11 07:43:41;;;;;;;5.27;1.40;;;5.90;90.10;;;;;;5054580;28;20017;-78
2021/04/11 07:46:13;;;;;;;5.07;1.27;;;5.80;90.10;;;;;;5054668;28;20039;-79
2021/04/11 07:49:00;;;;;;;2.53;0.90;;;5.80;90.00;;;;;;5054527;28;20111;-79
2021/04/11 07:51:35;;;;;;;3.53;1.00;;;5.80;90.10;;;;;;5072562;28;20103;-79
2021/04/11 07:54:21;;;;;;;2.93;1.00;;;5.80;90.20;;;;;;5072563;28;20040;-78
2021/04/11 07:57:20;;;;;;;5.00;0.77;;;5.80;90.20;;;;;;5072552;28;20471;-79
2021/04/11 08:00:14;;;;;;;2.37;0.90;;;5.80;90.20;;;;;;5072241;28;20047;-79
2021/04/11 08:02:51;;;;;;;3.27;1.00;;;5.90;90.30;;;;;;5072381;28;20063;-78
2021/04/11 08:05:49;;;;;;;5.90;2.23;;;5.90;90.10;;;;;;5054388;28;20464;-77
2021/04/11 08:08:49;;;;;;;4.73;1.00;;;5.90;89.90;;;;;;5072303;28;20024;-79
2021/04/11 08:11:33;;;;;;;3.70;0.90;;;5.90;89.80;;;;;;5072438;28;20031;-77
2021/04/11 08:14:45;;;;;;;4.85;1.25;;;5.90;89.80;;;;;;5072326;28;20037;-77
2021/04/11 08:17:35;;;;;;;3.23;0.97;;;5.90;89.70;;;;;;4990974;28;20035;-79
2021/04/11 08:20:28;;;;;;;3.27;0.80;;;6.00;89.80;;;;;;5068916;28;20048;-77
2021/04/11 08:23:00;;;;;;;7.70;1.20;;;6.00;89.60;;;;;;5054189;28;20029;-80
2021/04/11 08:25:58;;;;;;;2.50;0.63;;;6.00;89.30;;;;;;5073617;28;20502;-79
2021/04/11 08:28:47;;;;;;;2.03;0.80;;;6.00;89.20;;;;;;5031684;28;20037;-78
2021/04/11 08:31:28;;;;;;;1.97;0.73;;;6.10;88.90;;;;;;5058079;28;20024;-78
2021/04/11 08:34:19;;;;;;;5.13;1.03;;;6.10;88.90;;;;;;5076238;28;20028;-78
2021/04/11 08:37:15;;;;;;;2.67;1.00;;;6.10;89.00;;;;;;5048783;28;20488;-79
2021/04/11 08:39:58;;;;;;;2.73;0.93;;;6.10;88.50;;;;;;5075565;28;20056;-79
2021/04/11 08:42:45;;;;;;;2.20;0.70;;;6.10;87.70;;;;;;5057685;28;20035;-80
2021/04/11 08:45:43;;;;;;;3.03;1.43;;;6.20;88.10;;;;;;5075701;28;20068;-79
2021/04/11 08:48:21;;;;;;;2.17;0.77;;;6.20;87.90;;;;;;5075655;28;20086;-78
2021/04/11 08:51:18;;;;;;;2.97;0.80;;;6.20;87.90;;;;;;5075759;28;20017;-79
2021/04/11 08:54:15;;;;;;;2.43;0.60;;;6.20;87.70;;;;;;5030257;28;20040;-79
2021/04/11 08:57:04;;;;;;;1.70;0.70;;;6.20;87.50;;;;;;5069012;28;20451;-78
2021/04/11 08:59:51;;;;;;;3.27;0.90;;;6.30;87.70;;;;;;5074506;28;20044;-79
2021/04/11 09:02:45;;;;;;;3.97;0.97;;;6.40;87.90;;;;;;5075444;28;20035;-79
2021/04/11 09:05:51;;;;;;;2.55;0.73;;;6.50;87.80;;;;;;5075201;28;20393;-78
2021/04/11 09:08:57;;;;;;;1.63;0.60;;;6.70;87.60;;;;;;4993997;28;20028;-78
2021/04/11 09:11:42;;;;;;;1.70;0.63;;;6.80;87.50;;;;;;4993925;28;20390;-78
2021/04/11 09:14:30;;;;;;;4.10;0.60;;;6.90;86.60;;;;;;5051636;28;20111;-78
2021/04/11 09:17:07;;;;;;;2.00;0.60;;;7.00;86.70;;;;;;5057004;28;20059;-80
2021/04/11 09:20:00;;;;;;;4.67;0.60;;;7.10;86.90;;;;;;5075128;28;20444;-78
2021/04/11 09:22:35;;;;;;;3.00;0.67;;;7.30;86.60;;;;;;5074881;28;20047;-78
2021/04/11 09:25:18;;;;;;;3.43;0.60;;;7.40;86.70;;;;;;5074955;28;20028;-78
2021/04/11 09:27:53;;;;;;;3.93;0.90;;;7.50;85.40;;;;;;5074957;28;20487;-78
2021/04/11 09:30:40;;;;;;;1.27;0.50;;;7.60;85.20;;;;;;5074864;28;20116;-80
2021/04/11 09:33:08;;;;;;;2.33;0.50;;;7.60;84.40;;;;;;5075049;28;20024;-78
2021/04/11 09:35:48;;;;;;;3.13;0.50;;;7.60;83.50;;;;;;5074743;28;20040;-78
2021/04/11 09:38:51;;;;;;;2.50;0.53;;;7.60;82.60;;;;;;5074745;28;20101;-78
2021/04/11 09:41:54;;;;;;;1.60;0.40;;;7.50;82.90;;;;;;5074416;28;20495;-78
2021/04/11 09:45:21;;;;;;;1.80;0.40;;;7.40;83.50;;;;;;5074579;28;20028;-78
2021/04/11 09:47:49;;;;;;;1.17;0.40;;;7.40;84.30;;;;;;4997934;28;20478;-77
2021/04/11 09:50:18;;;;;;;2.40;0.40;;;7.50;84.20;;;;;;5012247;28;20080;-78
2021/04/11 09:52:49;;;;;;;2.73;0.40;;;7.60;84.50;;;;;;5053275;28;20093;-82
2021/04/11 09:55:54;;;;;;;1.83;0.50;;;7.70;84.50;;;;;;5094679;28;20073;-78
2021/04/11 09:58:35;;;;;;;0.77;0.40;;;7.90;84.00;;;;;;5038839;28;20042;-78
2021/04/11 10:01:15;;;;;;;2.90;0.60;;;8.00;83.40;;;;;;5094684;28;20044;-80
2021/04/11 10:04:00;;;;;;;1.80;0.47;;;7.90;81.60;;;;;;5071300;28;20130;-78
2021/04/11 10:06:28;;;;;;;;;;;7.90;81.70;;;;;;5056385;28;20031;-78
2021/04/11 10:09:03;;;;;;;3.83;0.40;;;7.90;81.10;;;;;;5073379;28;19951;-78
2021/04/11 10:11:59;;;;;;;4.47;0.40;;;7.90;80.60;;;;;;5073993;28;20028;-79
2021/04/11 10:14:28;;;;;;;2.20;0.40;;;7.80;81.00;;;;;;5055916;28;20043;-80
2021/04/11 10:17:09;;;;;;;2.43;0.50;;;7.70;81.30;;;;;;5056058;28;20434;-78
2021/04/11 10:19:43;;;;;;;2.50;0.60;;;7.70;81.80;;;;;;5055736;28;20116;-78
2021/04/11 10:22:30;;;;;;;2.13;0.40;;;7.70;82.30;;;;;;5073693;28;20063;-77
2021/04/11 10:25:17;;;;;;;6.83;1.00;;;7.70;82.50;;;;;;5055621;28;20040;-78
2021/04/11 10:27:49;;;;;;;2.17;0.60;;;7.80;83.00;;;;;;5055668;28;20116;-77
2021/04/11 10:30:17;;;;;;;2.27;0.50;;;7.90;82.80;;;;;;5073648;28;20029;-78
2021/04/11 10:33:18;;;;;;;4.90;0.50;;;8.00;81.70;;;;;;5055656;28;20029;-78
2021/04/11 10:36:13;;;;;;;3.40;0.47;;;8.10;81.40;;;;;;5040672;28;20369;-79
2021/04/11 10:38:57;;;;;;;2.57;0.40;;;8.10;81.00;;;;;;5066237;28;20123;-79
2021/04/11 10:41:53;;;;;;;4.90;0.40;;;8.10;81.20;;;;;;5073024;28;20041;-79
2021/04/11 10:44:52;;;;;;;7.07;0.70;;;8.00;81.40;;;;;;5055317;28;20052;-77
2021/04/11 10:47:48;;;;;;;3.13;0.67;;;7.90;81.60;;;;;;5073339;28;20020;-77
2021/04/11 10:50:39;;;;;;;5.00;0.60;;;7.90;82.00;;;;;;5073293;28;20021;-77
2021/04/11 10:53:39;;;;;;;2.43;0.60;;;7.90;81.90;;;;;;5069066;28;20037;-78
2021/04/11 10:56:33;;;;;;;4.87;0.80;;;7.80;81.60;;;;;;5073455;28;20085;-79
2021/04/11 10:59:23;;;;;;;2.35;0.40;;;7.90;81.80;;;;;;5073166;28;20035;-77
2021/04/11 11:01:51;;;;;;;2.93;0.50;;;8.10;82.50;;;;;;5073154;28;20032;-77
2021/04/11 11:04:49;;;;;;;3.03;0.50;;;8.50;82.80;;;;;;5054998;28;20025;-77
2021/04/11 11:07:36;;;;;;;3.70;0.60;;;8.80;82.90;;;;;;5042192;28;20032;-77
2021/04/11 11:10:14;;;;;;;2.47;0.50;;;9.10;82.30;;;;;;5072927;28;20069;-77
2021/04/11 11:12:57;;;;;;;1.77;0.43;;;9.30;80.90;;;;;;5055011;28;20024;-77
2021/04/11 11:15:44;;;;;;;2.73;0.70;;;9.30;79.30;;;;;;5072950;28;20075;-78
2021/04/11 11:18:39;;;;;;;4.87;0.90;;;9.20;78.00;;;;;;5054767;28;20094;-78
2021/04/11 11:21:41;;;;;;;5.93;0.80;;;9.30;77.80;;;;;;5054885;28;20025;-80
2021/04/11 11:24:33;;;;;;;2.40;0.50;;;9.40;77.10;;;;;;5072799;28;20032;-78
2021/04/11 11:27:01;;;;;;;2.70;0.53;;;9.30;76.20;;;;;;5031628;28;20036;-79
2021/04/11 11:29:37;;;;;;;3.13;0.60;;;9.30;75.40;;;;;;5054749;28;20036;-78
2021/04/11 11:32:30;;;;;;;2.30;0.50;;;9.30;75.50;;;;;;5072808;28;20024;-78
2021/04/11 11:35:03;;;;;;;2.50;0.40;;;9.30;73.60;;;;;;5072851;28;20028;-79
2021/04/11 11:37:51;;;;;;;3.00;0.40;;;9.30;72.90;;;;;;5054852;28;20082;-77
2021/04/11 11:40:38;;;;;;;2.37;0.30;;;9.30;72.20;;;;;;5072511;28;20107;-78
2021/04/11 11:43:24;;;;;;;4.20;0.60;;;9.20;71.30;;;;;;5072594;28;20200;-77
2021/04/11 11:45:58;;;;;;;2.73;0.40;;;9.10;72.00;;;;;;5072455;28;20020;-79
2021/04/11 11:48:45;;;;;;;2.40;0.37;;;9.00;72.60;;;;;;5072808;28;20373;-78
2021/04/11 11:51:36;;;;;;;2.50;0.40;;;8.90;72.70;;;;;;5072728;28;20024;-78
2021/04/11 11:54:10;;;;;;;0.97;0.50;;;8.80;73.00;;;;;;5072550;28;20159;-78
2021/04/11 11:57:08;;;;;;;7.43;0.63;;;8.80;73.20;;;;;;5054149;28;20077;-79
2021/04/11 12:00:07;;;;;;;1.47;0.50;;;8.70;72.90;;;;;;5054083;28;20505;-78
2021/04/11 12:03:21;;;;;;;6.87;0.70;;;8.70;72.80;;;;;;5058319;28;20032;-82
2021/04/11 12:06:05;;;;;;;3.27;0.70;;;8.80;72.20;;;;;;5058421;28;20024;-78
2021/04/11 12:09:05;;;;;;;2.45;0.40;;;8.80;73.00;;;;;;5076626;28;20024;-77
2021/04/11 12:12:14;;;;;;;2.50;0.70;;;9.00;73.50;;;;;;5076350;28;20025;-77
2021/04/11 12:15:05;;;;;;;6.00;0.60;;;9.30;73.50;;;;;;5054168;28;20056;-77
2021/04/11 12:17:40;;;;;;;4.67;0.50;;;9.60;73.30;;;;;;5058003;28;20495;-77
2021/04/11 12:20:14;;;;;;;4.07;0.50;;;9.90;71.80;;;;;;5076071;28;20029;-77
2021/04/11 12:23:03;;;;;;;1.60;0.40;;;10.30;71.40;;;;;;5076340;28;20032;-79
2021/04/11 12:25:32;;;;;;;1.57;0.33;;;10.60;69.40;;;;;;5075858;28;20066;-78
2021/04/11 12:28:17;;;;;;;3.93;0.60;;;10.70;67.10;;;;;;5058032;28;20035;-79
2021/04/11 12:30:43;;;;;;;;;;;10.90;64.50;;;;;;5076196;28;20067;-78
2021/04/11 12:33:11;;;;;;;1.67;0.40;;;10.80;63.10;;;;;;5075826;28;19908;-77
2021/04/11 12:36:01;;;;;;;1.70;0.47;;;10.60;63.00;;;;;;5075903;28;20103;-78
2021/04/11 12:38:50;;;;;;;1.77;0.40;;;10.40;63.20;;;;;;5057701;28;20052;-77
2021/04/11 12:41:36;;;;;;;2.73;0.50;;;10.20;63.50;;;;;;5075516;28;20381;-80
2021/04/11 12:44:37;;;;;;;2.10;0.40;;;10.00;63.30;;;;;;5057723;28;20021;-78
2021/04/11 12:47:18;;;;;;;1.30;0.33;;;9.70;63.80;;;;;;5057790;28;20430;-77
2021/04/11 12:49:56;;;;;;;1.30;0.33;;;9.60;63.80;;;;;;5075732;28;20103;-78
2021/04/11 12:52:31;;;;;;;3.33;0.50;;;9.40;64.20;;;;;;5075626;28;20032;-80
2021/04/11 12:55:07;;;;;;;1.33;0.40;;;9.40;64.80;;;;;;5057607;28;20039;-78
2021/04/11 12:57:40;;;;;;;1.73;0.37;;;9.30;65.20;;;;;;5075541;28;20032;-77
2021/04/11 13:00:11;;;;;;;1.88;0.40;;;9.30;65.70;;;;;;5074812;28;20050;-78
2021/04/11 13:02:44;;;;;;;2.80;0.40;;;9.40;65.40;;;;;;5056575;28;20033;-78
2021/04/11 13:05:12;;;;;;;4.27;0.50;;;9.40;65.30;;;;;;5073839;28;20044;-78
2021/04/11 13:07:53;;;;;;;1.37;0.50;;;9.40;65.20;;;;;;5074155;28;20025;-78
2021/04/11 13:10:29;;;;;;;3.03;0.40;;;9.40;65.40;;;;;;5075402;28;20051;-77
2021/04/11 13:13:17;;;;;;;1.63;0.43;;;9.40;65.60;;;;;;5075160;28;20040;-78
2021/04/11 13:15:52;;;;;;;2.67;0.60;;;9.50;65.80;;;;;;5056301;28;20028;-77
2021/04/11 13:18:37;;;;;;;1.10;0.40;;;9.80;67.00;;;;;;5074999;28;20028;-77
2021/04/11 13:21:30;;;;;;;3.47;0.50;;;10.50;68.30;;;;;;5056950;28;20050;-77
2021/04/11 13:24:30;;;;;;;2.05;0.40;;;11.80;68.40;;;;;;5074691;28;20385;-77
2021/04/11 13:27:23;;;;;;;2.75;0.40;;;12.90;65.50;;;;;;5074596;28;20086;-77
2021/04/11 13:30:25;;;;;;;1.63;0.20;;;13.20;61.40;;;;;;5074388;28;20133;-77
2021/04/11 13:33:18;;;;;;;3.30;0.60;;;13.10;60.60;;;;;;5043938;28;20511;-77
2021/04/11 13:36:02;;;;;;;1.98;0.30;;;12.90;60.50;;;;;;5074769;28;20031;-78
2021/04/11 13:38:41;;;;;;;1.92;0.30;;;13.00;58.60;;;;;;5056777;28;20048;-78
2021/04/11 13:41:14;;;;;;;0.60;0.20;;;13.00;56.50;;;;;;5074542;28;20403;-77
2021/04/11 13:44:08;;;;;;;1.35;0.30;;;12.80;54.30;;;;;;5056602;28;20036;-79
2021/04/11 13:46:34;;;;;;;3.13;0.38;;;12.40;53.90;;;;;;5056526;28;20024;-78
2021/04/11 13:49:34;;;;;;;1.80;0.30;;;12.10;54.40;;;;;;5074266;28;20146;-77
2021/04/11 13:52:13;;;;;;;2.15;0.30;;;11.90;55.70;;;;;;5056488;28;20030;-79
2021/04/11 13:54:42;;;;;;;3.33;0.20;;;11.90;55.70;;;;;;5074295;28;20498;-78
2021/04/11 13:57:42;;;;;;;2.67;0.35;;;11.80;55.30;;;;;;5056401;28;20112;-78
2021/04/11 14:00:16;;;;;;;3.60;0.30;;;11.60;55.20;;;;;;5074332;28;20388;-78
2021/04/11 14:02:46;;;;;;;3.57;0.40;;;11.30;55.40;;;;;;5074074;28;20086;-79
2021/04/11 14:05:18;;;;;;;2.57;0.47;;;11.10;56.10;;;;;;5056310;28;20025;-79